Time;durP1;ratioP1;P1;durP2;ratioP2;P2;SDS_P1;SDS_P2;PMS_P1;PMS_P2;Temp;Humidity;BMP_temperature;BMP_pressure;BME280_temperature;BME280_humidity;BME280_pressure;Samples;Min_cycle;Max_cycle;Signal;HPM_P1;HPM_P2
2022/10/23 00:01:25;;;;;;;2.25;1.10;;;11.20;99.90;;;;;;5050861;28;20461;-75
2022/10/23 00:03:56;;;;;;;2.25;0.90;;;11.10;99.90;;;;;;5059334;28;20449;-74
2022/10/23 00:06:23;;;;;;;2.28;1.00;;;11.10;99.90;;;;;;5064342;28;20104;-74
2022/10/23 00:08:49;;;;;;;2.97;0.80;;;11.00;99.90;;;;;;5064395;28;20028;-81
2022/10/23 00:11:18;;;;;;;2.00;0.70;;;11.10;99.90;;;;;;5062547;28;20059;-75
2022/10/23 00:13:44;;;;;;;4.43;0.68;;;11.10;99.90;;;;;;5063406;28;20033;-82
2022/10/23 00:16:10;;;;;;;1.40;0.50;;;11.20;99.90;;;;;;5064818;28;20125;-74
2022/10/23 00:18:37;;;;;;;2.05;0.70;;;11.10;99.90;;;;;;5049499;28;20023;-73
2022/10/23 00:21:03;;;;;;;2.60;0.75;;;11.10;99.90;;;;;;5062776;28;20055;-75
2022/10/23 00:23:28;;;;;;;1.83;0.80;;;11.10;99.90;;;;;;5031143;28;20374;-74
2022/10/23 00:25:54;;;;;;;1.10;0.50;;;11.10;99.90;;;;;;5049776;28;20078;-74
2022/10/23 00:28:20;;;;;;;1.35;0.57;;;11.10;99.90;;;;;;5030815;28;20046;-79
2022/10/23 00:30:45;;;;;;;6.28;0.75;;;11.20;99.90;;;;;;5028039;28;20503;-74
2022/10/23 00:33:11;;;;;;;2.33;0.60;;;11.20;99.90;;;;;;5028028;28;20070;-74
2022/10/23 00:35:40;;;;;;;1.50;0.68;;;11.10;99.90;;;;;;5063415;28;20034;-74
2022/10/23 00:38:07;;;;;;;2.50;0.60;;;11.00;99.90;;;;;;5062760;28;20028;-74
2022/10/23 00:40:34;;;;;;;1.70;0.60;;;11.10;99.90;;;;;;5045345;28;20465;-74
2022/10/23 00:43:00;;;;;;;2.00;0.60;;;11.10;99.90;;;;;;5029583;28;20071;-74
2022/10/23 00:45:33;;;;;;;1.58;0.60;;;11.00;99.90;;;;;;5049021;28;20547;-77
2022/10/23 00:48:02;;;;;;;1.73;0.60;;;10.90;99.90;;;;;;5063606;28;20032;-75
2022/10/23 00:50:31;;;;;;;1.73;0.65;;;10.80;99.90;;;;;;5062026;28;20161;-74
2022/10/23 00:53:01;;;;;;;1.27;0.60;;;10.90;99.90;;;;;;5064641;28;20115;-74
2022/10/23 00:55:28;;;;;;;2.35;0.77;;;10.90;99.90;;;;;;5044381;28;20029;-74
2022/10/23 00:57:54;;;;;;;1.90;0.60;;;10.80;99.90;;;;;;5062548;28;20020;-81
2022/10/23 01:00:21;;;;;;;2.10;0.60;;;10.80;99.90;;;;;;5049795;28;20056;-74
2022/10/23 01:02:47;;;;;;;1.85;0.73;;;10.70;99.90;;;;;;5064356;28;20454;-74
2022/10/23 01:05:13;;;;;;;2.03;0.60;;;10.70;99.90;;;;;;5049144;28;20115;-75
2022/10/23 01:08:00;;;;;;;2.38;0.80;;;10.70;99.90;;;;;;5038556;28;20028;-74
2022/10/23 01:10:52;;;;;;;1.73;0.60;;;10.70;99.90;;;;;;5032493;28;20040;-74
2022/10/23 01:13:38;;;;;;;4.78;0.80;;;10.90;99.90;;;;;;5062261;28;20055;-73
2022/10/23 01:16:22;;;;;;;1.42;0.60;;;10.80;99.90;;;;;;5045177;28;20037;-75
2022/10/23 01:19:18;;;;;;;2.13;0.63;;;10.60;99.90;;;;;;5044416;28;20028;-74
2022/10/23 01:22:10;;;;;;;1.20;0.50;;;10.60;99.90;;;;;;5044858;28;20078;-74
2022/10/23 01:24:57;;;;;;;1.30;0.60;;;10.50;99.90;;;;;;5045015;28;20083;-75
2022/10/23 01:27:26;;;;;;;2.28;0.40;;;10.60;99.90;;;;;;5043214;28;20128;-83
2022/10/23 01:29:52;;;;;;;1.65;0.60;;;10.60;99.90;;;;;;5061610;28;20021;-74
2022/10/23 01:32:47;;;;;;;2.17;0.50;;;10.60;99.90;;;;;;5031932;28;20119;-73
2022/10/23 01:35:27;;;;;;;2.10;0.60;;;10.60;99.90;;;;;;5063563;28;20016;-74
2022/10/23 01:38:11;;;;;;;1.45;0.55;;;10.60;99.90;;;;;;5044807;28;20449;-74
2022/10/23 01:40:47;;;;;;;2.65;0.70;;;10.60;99.90;;;;;;5054377;28;20055;-74
2022/10/23 01:43:18;;;;;;;1.42;0.70;;;10.60;99.90;;;;;;5038967;28;20385;-73
2022/10/23 01:45:55;;;;;;;1.80;0.68;;;10.50;99.90;;;;;;5045611;28;20063;-74
2022/10/23 01:48:27;;;;;;;2.22;0.57;;;10.60;99.90;;;;;;5043496;28;20288;-79
2022/10/23 01:50:56;;;;;;;2.40;0.60;;;10.60;99.90;;;;;;5037300;28;20041;-76
2022/10/23 01:53:24;;;;;;;1.63;0.60;;;10.60;99.90;;;;;;5061555;28;20013;-74
2022/10/23 01:55:51;;;;;;;1.75;0.60;;;10.40;99.90;;;;;;5048178;28;20454;-75
2022/10/23 01:58:24;;;;;;;3.42;0.60;;;10.40;99.90;;;;;;5028821;28;20358;-74
2022/10/23 02:00:51;;;;;;;1.73;0.50;;;10.40;99.90;;;;;;5049149;28;20017;-74
2022/10/23 02:03:18;;;;;;;1.33;0.60;;;10.40;99.90;;;;;;5048837;28;20035;-79
2022/10/23 02:05:44;;;;;;;2.10;0.50;;;10.40;99.90;;;;;;5047749;28;20021;-74
2022/10/23 02:08:10;;;;;;;2.13;0.60;;;10.40;99.90;;;;;;5052320;28;20458;-74
2022/10/23 02:11:16;;;;;;;1.45;0.50;;;10.40;99.90;;;;;;5049848;28;20037;-74
2022/10/23 02:13:51;;;;;;;2.45;0.75;;;10.30;99.90;;;;;;4948861;28;20162;-80
2022/10/23 02:16:20;;;;;;;1.30;0.50;;;10.30;99.90;;;;;;4953070;28;20037;-74
2022/10/23 02:19:01;;;;;;;1.75;0.50;;;10.30;99.90;;;;;;4937686;28;20043;-75
2022/10/23 02:21:54;;;;;;;1.50;0.70;;;10.40;99.90;;;;;;4932313;28;20082;-74
2022/10/23 02:24:31;;;;;;;1.58;0.70;;;10.40;99.90;;;;;;4969700;28;20039;-74
2022/10/23 02:27:01;;;;;;;2.35;0.50;;;10.30;99.90;;;;;;4952354;28;20151;-73
2022/10/23 02:29:30;;;;;;;;;;;10.40;99.90;;;;;;4950985;28;20654;-73
2022/10/23 02:31:58;;;;;;;1.17;0.50;;;10.30;99.90;;;;;;4952917;28;19917;-79
2022/10/23 02:34:24;;;;;;;2.08;0.50;;;10.30;99.90;;;;;;4952642;28;20034;-78
2022/10/23 02:36:50;;;;;;;1.90;0.60;;;10.20;99.90;;;;;;4952482;28;20046;-74
2022/10/23 02:39:21;;;;;;;1.75;0.60;;;10.20;99.90;;;;;;4953281;28;20018;-78
2022/10/23 02:41:54;;;;;;;2.92;0.50;;;10.20;99.90;;;;;;4969716;28;20038;-78
2022/10/23 02:44:30;;;;;;;1.75;0.60;;;10.10;99.90;;;;;;4992039;28;20041;-74
2022/10/23 02:47:27;;;;;;;1.15;0.60;;;10.20;99.90;;;;;;5046658;28;20374;-76
2022/10/23 02:50:03;;;;;;;1.38;0.60;;;10.30;99.90;;;;;;5051333;28;20048;-74
2022/10/23 02:52:56;;;;;;;1.50;0.52;;;10.20;99.90;;;;;;5029899;28;20393;-74
2022/10/23 02:55:44;;;;;;;1.98;0.90;;;10.20;99.90;;;;;;5047563;28;20482;-74
2022/10/23 02:58:18;;;;;;;2.00;0.55;;;10.10;99.90;;;;;;5028390;28;20025;-74
2022/10/23 03:01:02;;;;;;;1.50;0.60;;;10.10;99.90;;;;;;5031969;28;20056;-74
2022/10/23 03:03:34;;;;;;;2.60;0.60;;;10.00;99.90;;;;;;5047920;28;20116;-74
2022/10/23 03:06:01;;;;;;;1.55;0.50;;;10.00;99.90;;;;;;5047189;28;20052;-81
2022/10/23 03:08:27;;;;;;;2.90;0.55;;;10.00;99.90;;;;;;5050818;28;20021;-78
2022/10/23 03:10:52;;;;;;;1.20;0.50;;;10.00;99.90;;;;;;5043608;28;20085;-74
2022/10/23 03:13:20;;;;;;;1.63;0.47;;;10.00;99.90;;;;;;5044934;28;20474;-81
2022/10/23 03:15:45;;;;;;;1.42;0.40;;;10.00;99.90;;;;;;5047944;28;20075;-74
2022/10/23 03:18:13;;;;;;;2.40;0.80;;;10.00;99.90;;;;;;5046659;28;20025;-80
2022/10/23 03:20:43;;;;;;;2.38;0.90;;;10.10;99.90;;;;;;5052378;28;20032;-76
2022/10/23 03:23:12;;;;;;;1.10;0.50;;;10.20;99.90;;;;;;5045664;28;20025;-76
2022/10/23 03:25:37;;;;;;;1.75;0.60;;;10.20;99.90;;;;;;5031561;28;20111;-76
2022/10/23 03:28:03;;;;;;;1.52;0.40;;;10.20;99.90;;;;;;5060435;28;20442;-76
2022/10/23 03:30:32;;;;;;;1.27;0.43;;;10.40;99.90;;;;;;5066452;28;20044;-79
2022/10/23 03:32:58;;;;;;;1.30;0.50;;;10.50;99.90;;;;;;5044658;28;20492;-77
2022/10/23 03:35:24;;;;;;;3.90;0.40;;;10.30;99.90;;;;;;5062734;28;20035;-73
2022/10/23 03:37:49;;;;;;;1.65;0.50;;;10.30;99.90;;;;;;5066306;28;20017;-75
2022/10/23 03:40:15;;;;;;;4.45;0.70;;;10.40;99.90;;;;;;5050440;28;20039;-80
2022/10/23 03:42:41;;;;;;;3.38;0.60;;;10.50;99.90;;;;;;5065557;28;20028;-77
2022/10/23 03:45:09;;;;;;;3.35;0.95;;;10.60;99.90;;;;;;5049677;28;20509;-75
2022/10/23 03:47:39;;;;;;;1.55;0.40;;;10.60;99.90;;;;;;5033369;28;20159;-77
2022/10/23 03:50:06;;;;;;;1.48;0.50;;;10.70;99.90;;;;;;5031882;28;20049;-76
2022/10/23 03:52:33;;;;;;;2.03;0.68;;;10.70;99.90;;;;;;5051014;28;20078;-80
2022/10/23 03:54:58;;;;;;;7.60;0.60;;;10.70;99.90;;;;;;5065110;28;20559;-84
2022/10/23 03:57:24;;;;;;;1.63;0.40;;;10.80;99.90;;;;;;5048831;28;20374;-75
2022/10/23 03:59:49;;;;;;;1.52;0.40;;;10.90;99.90;;;;;;5046034;28;20400;-76
2022/10/23 04:02:15;;;;;;;2.00;0.50;;;10.90;99.90;;;;;;5030715;28;20021;-76
2022/10/23 04:04:41;;;;;;;2.90;0.50;;;11.10;99.90;;;;;;5030602;28;20115;-75
2022/10/23 04:07:06;;;;;;;1.73;0.40;;;10.90;99.90;;;;;;5050745;28;20377;-79
2022/10/23 04:09:32;;;;;;;2.58;0.50;;;10.80;99.90;;;;;;5045750;28;20506;-75
2022/10/23 04:11:58;;;;;;;1.90;0.50;;;10.80;99.90;;;;;;5046044;28;20085;-75
2022/10/23 04:14:26;;;;;;;2.72;0.50;;;10.90;99.90;;;;;;5050362;28;20013;-80
2022/10/23 04:16:52;;;;;;;2.20;0.45;;;11.00;99.90;;;;;;5065370;28;20028;-76
2022/10/23 04:19:18;;;;;;;0.98;0.40;;;11.10;99.90;;;;;;5050622;28;20028;-75
2022/10/23 04:21:44;;;;;;;1.80;0.40;;;11.00;99.90;;;;;;5042818;28;20099;-76
2022/10/23 04:24:10;;;;;;;2.83;0.55;;;11.10;99.90;;;;;;5044142;28;20027;-75
2022/10/23 04:26:36;;;;;;;2.08;0.40;;;11.00;99.90;;;;;;5049920;28;20021;-76
2022/10/23 04:29:02;;;;;;;1.52;0.40;;;11.00;99.90;;;;;;5049648;28;20035;-82
2022/10/23 04:31:28;;;;;;;1.40;0.40;;;11.30;99.90;;;;;;5050221;28;20055;-75
2022/10/23 04:33:54;;;;;;;4.15;0.88;;;11.40;99.90;;;;;;5045843;28;20028;-75
2022/10/23 04:36:27;;;;;;;2.50;0.50;;;11.40;99.90;;;;;;5047098;28;20036;-76
2022/10/23 04:38:52;;;;;;;1.45;0.50;;;11.40;99.90;;;;;;5047341;28;20029;-76
2022/10/23 04:41:19;;;;;;;1.50;0.50;;;11.50;99.90;;;;;;5044402;28;20078;-77
2022/10/23 04:43:45;;;;;;;2.10;0.50;;;11.50;99.90;;;;;;5046773;28;20021;-75
2022/10/23 04:46:12;;;;;;;1.25;0.40;;;11.70;99.90;;;;;;5047224;28;20481;-75
2022/10/23 04:48:38;;;;;;;3.70;0.60;;;11.50;99.90;;;;;;5063294;28;20055;-76
2022/10/23 04:51:22;;;;;;;1.65;0.50;;;11.60;99.90;;;;;;5062647;28;20511;-76
2022/10/23 04:53:53;;;;;;;3.13;0.55;;;11.50;99.90;;;;;;5050250;28;20028;-75
2022/10/23 04:56:41;;;;;;;1.85;0.52;;;11.50;99.90;;;;;;5058280;28;20032;-75
2022/10/23 04:59:12;;;;;;;1.70;0.60;;;11.60;99.90;;;;;;5045073;28;20028;-78
2022/10/23 05:01:38;;;;;;;1.55;0.60;;;11.70;99.90;;;;;;5046009;28;20024;-82
2022/10/23 05:04:06;;;;;;;2.63;0.60;;;11.80;99.90;;;;;;5046134;28;20029;-75
2022/10/23 05:06:38;;;;;;;1.52;0.63;;;11.70;99.90;;;;;;5045244;28;20116;-75
2022/10/23 05:09:15;;;;;;;3.63;0.60;;;11.70;99.90;;;;;;5048523;28;20146;-75
2022/10/23 05:12:09;;;;;;;2.83;0.60;;;11.90;99.90;;;;;;5000320;28;20026;-75
2022/10/23 05:14:35;;;;;;;2.85;0.90;;;11.80;99.90;;;;;;4984323;28;20021;-75
2022/10/23 05:17:13;;;;;;;2.92;0.70;;;11.80;99.90;;;;;;4984685;28;20511;-75
2022/10/23 05:19:47;;;;;;;1.60;0.50;;;11.90;99.90;;;;;;5003318;28;20034;-75
2022/10/23 05:22:13;;;;;;;1.65;0.60;;;11.80;99.90;;;;;;5002581;28;20054;-80
2022/10/23 05:24:49;;;;;;;2.03;0.50;;;12.00;99.90;;;;;;4997086;28;20029;-75
2022/10/23 05:27:17;;;;;;;1.33;0.50;;;12.00;99.90;;;;;;4985484;28;20033;-76
2022/10/23 05:29:43;;;;;;;2.85;0.60;;;12.00;99.90;;;;;;4985638;28;20042;-80
2022/10/23 05:32:12;;;;;;;1.63;0.60;;;11.90;99.90;;;;;;4984683;28;20040;-81
2022/10/23 05:34:39;;;;;;;2.70;0.50;;;12.10;99.90;;;;;;4984721;28;20137;-81
2022/10/23 05:37:08;;;;;;;1.42;0.40;;;12.00;99.90;;;;;;5001836;28;20029;-79
2022/10/23 05:39:36;;;;;;;1.98;0.60;;;12.00;99.90;;;;;;4973358;28;20053;-76
2022/10/23 05:42:05;;;;;;;2.78;0.50;;;12.10;99.90;;;;;;4971409;28;20042;-75
2022/10/23 05:44:31;;;;;;;2.95;0.52;;;12.10;99.90;;;;;;4984529;28;20502;-75
2022/10/23 05:47:09;;;;;;;2.03;0.50;;;12.10;99.90;;;;;;4985985;28;20034;-75
2022/10/23 05:49:55;;;;;;;2.03;0.52;;;12.30;99.90;;;;;;5063391;28;20193;-75
2022/10/23 05:52:23;;;;;;;3.33;0.65;;;12.40;99.90;;;;;;5048980;28;20036;-76
2022/10/23 05:55:08;;;;;;;3.42;0.60;;;12.40;99.90;;;;;;5060352;28;20043;-75
2022/10/23 05:57:48;;;;;;;;;;;12.30;99.90;;;;;;5040195;28;20037;-75
2022/10/23 06:00:18;;;;;;;1.48;0.40;;;12.40;99.90;;;;;;5049145;28;19908;-76
2022/10/23 06:02:51;;;;;;;2.35;0.57;;;12.30;99.90;;;;;;5027646;28;20045;-79
2022/10/23 06:05:34;;;;;;;2.90;0.60;;;12.40;99.90;;;;;;5049142;28;20025;-83
2022/10/23 06:08:15;;;;;;;3.55;0.50;;;12.40;99.90;;;;;;5031403;28;20024;-75
2022/10/23 06:10:41;;;;;;;2.28;0.50;;;12.40;99.90;;;;;;5063484;28;20532;-79
2022/10/23 06:13:09;;;;;;;1.35;0.47;;;12.50;99.90;;;;;;5031341;28;20020;-75
2022/10/23 06:15:35;;;;;;;2.60;0.60;;;12.50;99.90;;;;;;5049184;28;20037;-76
2022/10/23 06:18:09;;;;;;;2.80;0.50;;;12.50;99.90;;;;;;5047108;28;20024;-77
2022/10/23 06:20:44;;;;;;;1.88;0.50;;;12.50;99.90;;;;;;5028672;28;20484;-81
2022/10/23 06:23:18;;;;;;;1.85;0.50;;;12.50;99.90;;;;;;5042618;28;20024;-81
2022/10/23 06:26:05;;;;;;;2.53;0.50;;;12.50;99.90;;;;;;5052463;28;20443;-76
2022/10/23 06:28:39;;;;;;;1.98;0.55;;;12.60;99.90;;;;;;5048809;28;20017;-76
2022/10/23 06:31:10;;;;;;;1.70;0.50;;;12.60;99.90;;;;;;5038120;28;20120;-76
2022/10/23 06:33:36;;;;;;;3.40;0.88;;;12.60;99.90;;;;;;5030841;28;20543;-77
2022/10/23 06:36:04;;;;;;;3.53;0.60;;;12.70;99.90;;;;;;5043679;28;20033;-76
2022/10/23 06:38:36;;;;;;;2.88;0.80;;;12.60;99.90;;;;;;5042510;28;20069;-76
2022/10/23 06:41:03;;;;;;;2.22;0.70;;;12.60;99.90;;;;;;5034610;28;20025;-79
2022/10/23 06:43:34;;;;;;;1.60;0.70;;;12.70;99.90;;;;;;5044400;28;20025;-75
2022/10/23 06:46:31;;;;;;;1.67;0.50;;;12.70;99.90;;;;;;5039605;28;20203;-80
2022/10/23 06:49:32;;;;;;;2.15;0.50;;;12.80;99.90;;;;;;5007713;28;20030;-77
2022/10/23 06:51:58;;;;;;;2.15;0.60;;;12.80;99.90;;;;;;4985574;28;20049;-76
2022/10/23 06:54:24;;;;;;;2.67;0.50;;;12.90;99.90;;;;;;5004128;28;20025;-78
2022/10/23 06:56:50;;;;;;;2.47;0.50;;;12.80;99.90;;;;;;4985576;28;20049;-75
2022/10/23 06:59:28;;;;;;;2.45;0.70;;;12.90;99.90;;;;;;5002295;28;20029;-75
2022/10/23 07:01:53;;;;;;;1.60;0.50;;;12.90;99.90;;;;;;5006351;28;20030;-76
2022/10/23 07:04:19;;;;;;;2.00;0.60;;;12.90;99.90;;;;;;5004098;28;20445;-77
2022/10/23 07:06:45;;;;;;;2.35;0.55;;;13.00;99.90;;;;;;4994649;28;20079;-79
2022/10/23 07:09:11;;;;;;;3.17;0.65;;;13.00;99.90;;;;;;4987583;28;20069;-76
2022/10/23 07:12:05;;;;;;;1.83;0.47;;;13.00;99.90;;;;;;4989691;28;20053;-76
2022/10/23 07:14:40;;;;;;;2.00;0.50;;;13.10;99.90;;;;;;4991209;28;20057;-76
2022/10/23 07:17:06;;;;;;;1.48;0.47;;;13.00;99.90;;;;;;5003113;28;21269;-77
2022/10/23 07:19:32;;;;;;;0.93;0.35;;;13.10;99.90;;;;;;5007326;28;20053;-78
2022/10/23 07:22:03;;;;;;;2.63;0.68;;;13.10;99.90;;;;;;5005680;28;20030;-76
2022/10/23 07:24:41;;;;;;;2.00;0.40;;;13.10;99.90;;;;;;5061587;28;20052;-76
2022/10/23 07:27:17;;;;;;;2.47;0.40;;;13.20;99.90;;;;;;5044641;28;20067;-76
2022/10/23 07:29:43;;;;;;;1.95;0.50;;;13.20;99.90;;;;;;5029640;28;20021;-76
2022/10/23 07:32:09;;;;;;;2.42;0.70;;;13.30;99.90;;;;;;5030253;28;20078;-77
2022/10/23 07:34:54;;;;;;;3.47;0.50;;;13.30;99.90;;;;;;5062681;28;20043;-76
2022/10/23 07:37:28;;;;;;;2.28;0.70;;;13.40;99.90;;;;;;5042755;28;20486;-76
2022/10/23 07:39:55;;;;;;;2.53;0.68;;;13.40;99.90;;;;;;5028223;28;20032;-76
2022/10/23 07:42:22;;;;;;;2.95;0.60;;;13.40;99.90;;;;;;5050063;28;20500;-75
2022/10/23 07:44:48;;;;;;;2.63;0.88;;;13.40;99.90;;;;;;5045149;28;20578;-76
2022/10/23 07:47:14;;;;;;;3.30;0.80;;;13.40;99.90;;;;;;5047214;28;20036;-75
2022/10/23 07:49:43;;;;;;;3.22;0.88;;;13.40;99.90;;;;;;5028771;28;20111;-78
2022/10/23 07:52:08;;;;;;;4.10;0.80;;;13.50;99.90;;;;;;5047238;28;20520;-83
2022/10/23 07:54:54;;;;;;;3.15;0.80;;;13.50;99.90;;;;;;5062627;28;20435;-82
2022/10/23 07:57:20;;;;;;;2.10;0.70;;;13.50;99.90;;;;;;5045099;28;20084;-77
2022/10/23 07:59:53;;;;;;;5.40;0.70;;;13.50;99.90;;;;;;5059139;28;20477;-80
2022/10/23 08:02:20;;;;;;;3.00;0.50;;;13.50;99.90;;;;;;5038521;28;20025;-76
2022/10/23 08:04:48;;;;;;;2.80;0.85;;;13.60;99.90;;;;;;5038419;28;20040;-79
2022/10/23 08:07:29;;;;;;;1.83;0.55;;;13.60;99.90;;;;;;5039089;28;20025;-75
2022/10/23 08:09:56;;;;;;;2.22;0.50;;;13.60;99.90;;;;;;5039786;28;20082;-76
2022/10/23 08:12:22;;;;;;;1.52;0.40;;;13.60;99.90;;;;;;5055937;28;20017;-81
2022/10/23 08:14:47;;;;;;;2.38;0.60;;;13.60;99.90;;;;;;5037224;28;20029;-75
2022/10/23 08:17:13;;;;;;;2.50;0.70;;;13.70;99.90;;;;;;5040059;28;20028;-76
2022/10/23 08:19:59;;;;;;;1.45;0.50;;;13.70;99.90;;;;;;5046787;28;20044;-80
2022/10/23 08:22:29;;;;;;;2.53;0.60;;;13.70;99.90;;;;;;5037256;28;20028;-78
2022/10/23 08:24:55;;;;;;;2.38;0.50;;;13.80;99.90;;;;;;5034584;28;20384;-78
2022/10/23 08:27:23;;;;;;;3.67;0.50;;;13.80;99.90;;;;;;5042985;28;20047;-75
2022/10/23 08:29:48;;;;;;;3.60;0.50;;;13.80;99.90;;;;;;5041200;28;20480;-77
2022/10/23 08:32:14;;;;;;;1.30;0.60;;;13.80;99.90;;;;;;5038246;28;20032;-76
2022/10/23 08:34:59;;;;;;;3.55;0.50;;;13.90;99.90;;;;;;5045720;28;20025;-78
2022/10/23 08:37:27;;;;;;;4.35;0.57;;;13.80;99.90;;;;;;5032391;28;20036;-76
2022/10/23 08:39:54;;;;;;;3.28;0.50;;;13.90;99.90;;;;;;5036516;28;20032;-79
2022/10/23 08:43:03;;;;;;;1.55;0.40;;;14.00;99.90;;;;;;4978553;28;20027;-81
2022/10/23 08:45:57;;;;;;;2.28;0.50;;;14.00;99.90;;;;;;4978669;28;20054;-77
2022/10/23 08:48:53;;;;;;;2.33;0.50;;;14.00;99.90;;;;;;4977429;28;20034;-76
2022/10/23 08:51:45;;;;;;;;;;;14.10;99.90;;;;;;4960473;28;20560;-79
2022/10/23 08:54:15;;;;;;;1.88;0.50;;;14.20;99.90;;;;;;4958100;28;20012;-76
2022/10/23 08:56:42;;;;;;;;;;;14.20;99.90;;;;;;4974829;28;20530;-76
2022/10/23 08:59:41;;;;;;;3.05;0.40;;;14.20;99.90;;;;;;4957653;28;20057;-76
2022/10/23 09:02:18;;;;;;;2.70;0.40;;;14.30;99.90;;;;;;4949159;28;20422;-80
2022/10/23 09:04:46;;;;;;;1.77;0.43;;;14.40;99.90;;;;;;4962700;28;20035;-75
2022/10/23 09:07:33;;;;;;;2.67;0.50;;;14.50;99.90;;;;;;4961261;28;20043;-81
2022/10/23 09:10:20;;;;;;;2.88;0.40;;;14.50;99.90;;;;;;4976798;28;20141;-77
2022/10/23 09:12:45;;;;;;;2.33;0.40;;;14.60;99.90;;;;;;4978541;28;20054;-75
2022/10/23 09:15:17;;;;;;;1.40;0.40;;;14.60;99.90;;;;;;4977822;28;20499;-77
2022/10/23 09:17:43;;;;;;;1.95;0.50;;;14.70;99.90;;;;;;4977879;28;20125;-75
2022/10/23 09:20:28;;;;;;;1.60;0.50;;;14.80;99.90;;;;;;5026190;28;20083;-76
2022/10/23 09:23:01;;;;;;;4.47;0.50;;;14.80;99.90;;;;;;5038264;28;21096;-76
2022/10/23 09:25:29;;;;;;;2.17;0.40;;;14.90;99.90;;;;;;5056158;28;20059;-76
2022/10/23 09:27:57;;;;;;;2.33;0.50;;;14.90;99.90;;;;;;5034473;28;20079;-76
2022/10/23 09:30:39;;;;;;;1.90;0.40;;;14.90;99.90;;;;;;5052737;28;20083;-78
2022/10/23 09:33:16;;;;;;;6.05;0.50;;;14.90;99.90;;;;;;5054969;28;20025;-76
2022/10/23 09:35:54;;;;;;;2.33;0.50;;;14.90;99.90;;;;;;5037165;28;20032;-77
2022/10/23 09:38:47;;;;;;;2.25;0.50;;;15.00;99.90;;;;;;5057382;28;20025;-76
2022/10/23 09:41:27;;;;;;;1.15;0.38;;;15.00;99.90;;;;;;5024260;28;20047;-76
2022/10/23 09:44:21;;;;;;;2.20;0.50;;;15.00;99.90;;;;;;5055214;28;20132;-83
2022/10/23 09:46:59;;;;;;;3.80;0.40;;;15.10;99.90;;;;;;5015510;28;20041;-76
2022/10/23 09:49:27;;;;;;;2.05;0.30;;;15.10;99.90;;;;;;5035454;28;20178;-76
2022/10/23 09:51:57;;;;;;;1.55;0.40;;;15.10;99.90;;;;;;5038022;28;20033;-76
2022/10/23 09:54:23;;;;;;;3.83;0.50;;;15.10;99.90;;;;;;5037512;28;20031;-75
2022/10/23 09:56:50;;;;;;;2.15;0.40;;;15.10;99.90;;;;;;5039379;28;20380;-79
2022/10/23 09:59:28;;;;;;;2.15;0.50;;;15.10;99.90;;;;;;5008782;28;20516;-76
2022/10/23 10:02:00;;;;;;;1.90;0.50;;;15.20;99.90;;;;;;5027977;28;20516;-76
2022/10/23 10:04:49;;;;;;;2.20;0.50;;;15.20;99.90;;;;;;5022962;28;20230;-77
2022/10/23 10:07:19;;;;;;;7.28;0.70;;;15.30;99.90;;;;;;5041282;28;20025;-75
2022/10/23 10:09:45;;;;;;;2.55;0.50;;;15.30;99.90;;;;;;5042048;28;20898;-77
2022/10/23 10:12:38;;;;;;;3.08;0.60;;;15.30;99.90;;;;;;5012076;28;20037;-75
2022/10/23 10:15:18;;;;;;;2.25;0.40;;;15.40;99.90;;;;;;5029007;28;20033;-76
2022/10/23 10:17:59;;;;;;;;;;;15.40;99.90;;;;;;5028499;28;20122;-75
2022/10/23 10:20:51;;;;;;;1.40;0.40;;;15.50;99.90;;;;;;5026849;28;19913;-77
2022/10/23 10:23:33;;;;;;;1.77;0.32;;;15.50;99.90;;;;;;5029093;28;20029;-77
2022/10/23 10:26:10;;;;;;;2.53;0.40;;;15.60;99.90;;;;;;5016682;28;20036;-81
2022/10/23 10:28:59;;;;;;;0.80;0.30;;;15.60;99.90;;;;;;5031471;28;20175;-75
2022/10/23 10:31:41;;;;;;;1.30;0.30;;;15.60;99.90;;;;;;5030788;28;20408;-77
2022/10/23 10:34:28;;;;;;;1.55;0.30;;;15.70;99.90;;;;;;5045888;28;20572;-76
2022/10/23 10:37:15;;;;;;;1.42;0.30;;;15.70;99.90;;;;;;5031895;28;20033;-76
2022/10/23 10:40:16;;;;;;;1.00;0.30;;;15.70;99.90;;;;;;5031288;28;20033;-77
2022/10/23 10:43:10;;;;;;;1.08;0.32;;;15.70;99.90;;;;;;5031296;28;20509;-75
2022/10/23 10:45:47;;;;;;;1.50;0.40;;;15.80;99.90;;;;;;5016640;28;20056;-78
2022/10/23 10:48:39;;;;;;;2.17;0.40;;;15.80;99.90;;;;;;5029952;28;20218;-75
2022/10/23 10:51:44;;;;;;;1.70;0.45;;;15.80;99.90;;;;;;5013999;28;20180;-80
2022/10/23 10:54:30;;;;;;;2.95;0.40;;;15.80;99.90;;;;;;5031171;28;20032;-75
2022/10/23 10:56:59;;;;;;;2.22;0.40;;;15.90;99.90;;;;;;5047879;28;20033;-76
2022/10/23 10:59:31;;;;;;;1.25;0.47;;;15.90;99.90;;;;;;5001747;28;20610;-76
2022/10/23 11:02:15;;;;;;;1.50;0.40;;;15.90;99.90;;;;;;5044532;28;20056;-76
2022/10/23 11:05:14;;;;;;;1.63;0.40;;;16.00;99.90;;;;;;5010520;28;20028;-77
2022/10/23 11:07:57;;;;;;;2.28;0.60;;;16.00;99.90;;;;;;5023191;28;20040;-82
2022/10/23 11:10:23;;;;;;;1.70;0.40;;;16.00;99.90;;;;;;5029669;28;20048;-83
2022/10/23 11:12:50;;;;;;;1.60;0.40;;;16.00;99.90;;;;;;5011455;28;20051;-77
2022/10/23 11:15:34;;;;;;;2.15;0.50;;;16.10;99.90;;;;;;5024215;28;20036;-80
2022/10/23 11:18:03;;;;;;;4.00;0.60;;;16.10;99.90;;;;;;5026907;28;20420;-76
2022/10/23 11:21:12;;;;;;;1.95;0.40;;;16.20;99.90;;;;;;5030247;28;20029;-80
2022/10/23 11:23:58;;;;;;;1.90;0.40;;;16.30;99.90;;;;;;5027214;28;20729;-76
2022/10/23 11:27:01;;;;;;;2.00;0.40;;;16.30;99.90;;;;;;5047150;28;20037;-75
2022/10/23 11:29:41;;;;;;;3.38;0.40;;;16.40;99.90;;;;;;4933744;28;20081;-77
2022/10/23 11:32:15;;;;;;;1.02;0.30;;;16.50;99.90;;;;;;4949643;28;20163;-77
2022/10/23 11:34:53;;;;;;;1.60;0.40;;;16.50;99.90;;;;;;4948659;28;20238;-75
2022/10/23 11:37:20;;;;;;;1.42;0.40;;;16.60;99.90;;;;;;4949992;28;20050;-75
2022/10/23 11:40:07;;;;;;;1.20;0.40;;;16.70;99.90;;;;;;4948627;28;20038;-77
2022/10/23 11:42:38;;;;;;;1.25;0.30;;;16.80;99.90;;;;;;4949976;28;20063;-74
2022/10/23 11:45:27;;;;;;;2.40;0.50;;;16.90;99.90;;;;;;4949371;28;20054;-75
2022/10/23 11:48:03;;;;;;;1.77;0.40;;;17.00;99.90;;;;;;4946079;28;20042;-76
2022/10/23 11:50:49;;;;;;;1.20;0.30;;;17.00;99.90;;;;;;4947398;28;20061;-75
2022/10/23 11:53:38;;;;;;;2.13;0.32;;;17.10;99.90;;;;;;4948337;28;20047;-75
2022/10/23 11:56:10;;;;;;;1.95;0.47;;;17.10;99.90;;;;;;4961511;28;20031;-79
2022/10/23 11:58:55;;;;;;;2.35;0.70;;;17.20;99.90;;;;;;4960134;28;20126;-76
2022/10/23 12:01:33;;;;;;;3.05;0.47;;;17.30;99.90;;;;;;4958879;28;20031;-77
2022/10/23 12:04:14;;;;;;;2.80;0.40;;;17.40;99.90;;;;;;4928867;28;20537;-80
2022/10/23 12:06:43;;;;;;;3.58;0.40;;;17.40;99.90;;;;;;5008111;28;20037;-79
2022/10/23 12:09:41;;;;;;;1.23;0.30;;;17.40;99.90;;;;;;5055206;28;20392;-78
2022/10/23 12:12:07;;;;;;;2.45;0.30;;;17.50;99.90;;;;;;5024261;28;20438;-76
2022/10/23 12:14:45;;;;;;;1.17;0.30;;;17.60;99.90;;;;;;5029941;28;20104;-85
2022/10/23 12:17:23;;;;;;;0.98;0.30;;;17.70;99.90;;;;;;5024164;28;20032;-77
2022/10/23 12:19:54;;;;;;;1.20;0.30;;;17.90;99.90;;;;;;5040248;28;20449;-81
2022/10/23 12:22:23;;;;;;;1.25;0.30;;;18.00;99.90;;;;;;5041720;28;20059;-77
2022/10/23 12:24:56;;;;;;;2.00;0.40;;;18.00;99.90;;;;;;5036706;28;20469;-77
2022/10/23 12:27:40;;;;;;;1.30;0.40;;;18.10;99.90;;;;;;5055879;28;20025;-77
2022/10/23 12:30:15;;;;;;;1.40;0.40;;;18.10;99.90;;;;;;5045370;28;20060;-81
2022/10/23 12:32:47;;;;;;;2.97;0.30;;;18.10;99.90;;;;;;5058767;28;20048;-79
2022/10/23 12:35:46;;;;;;;1.65;0.30;;;18.00;99.90;;;;;;5058526;28;20024;-78
2022/10/23 12:38:16;;;;;;;2.23;0.30;;;18.00;99.90;;;;;;5038808;28;20063;-75
2022/10/23 12:40:49;;;;;;;1.05;0.30;;;18.00;99.90;;;;;;5040250;28;20032;-78
2022/10/23 12:43:26;;;;;;;0.90;0.30;;;18.10;99.90;;;;;;5033965;28;20447;-76
2022/10/23 12:45:54;;;;;;;1.20;0.20;;;18.10;99.90;;;;;;5019918;28;20086;-74
2022/10/23 12:48:22;;;;;;;1.00;0.30;;;18.10;99.90;;;;;;5038425;28;20471;-80
2022/10/23 12:50:51;;;;;;;1.08;0.30;;;18.10;99.90;;;;;;5058862;28;20075;-74
2022/10/23 12:53:19;;;;;;;3.63;0.40;;;18.20;99.90;;;;;;5034406;28;20071;-79
2022/10/23 12:55:59;;;;;;;1.08;0.30;;;18.20;99.90;;;;;;5055095;28;20025;-77
2022/10/23 12:58:29;;;;;;;0.93;0.30;;;18.30;99.90;;;;;;5054155;28;20024;-74
2022/10/23 13:01:01;;;;;;;1.88;0.30;;;18.30;99.90;;;;;;5035273;28;20036;-75
2022/10/23 13:03:29;;;;;;;1.17;0.30;;;18.30;99.90;;;;;;5056070;28;20556;-74
2022/10/23 13:06:01;;;;;;;1.55;0.30;;;18.30;99.90;;;;;;5055158;28;20151;-81
2022/10/23 13:08:48;;;;;;;1.33;0.22;;;18.40;99.90;;;;;;5057174;28;20027;-80
2022/10/23 13:11:34;;;;;;;1.40;0.30;;;18.40;99.90;;;;;;5055067;28;20635;-75
2022/10/23 13:14:11;;;;;;;1.10;0.22;;;18.40;99.90;;;;;;5052450;28;20389;-80
2022/10/23 13:16:36;;;;;;;0.93;0.30;;;18.40;99.90;;;;;;5052478;28;20037;-77
2022/10/23 13:19:02;;;;;;;2.13;0.30;;;18.40;99.90;;;;;;5037301;28;20124;-79
2022/10/23 13:21:29;;;;;;;1.02;0.30;;;18.40;99.90;;;;;;5055909;28;20104;-78
2022/10/23 13:23:55;;;;;;;0.80;0.28;;;18.40;99.90;;;;;;5057994;28;20480;-75